Time;durP1;ratioP1;P1;durP2;ratioP2;P2;SDS_P1;SDS_P2;PMS_P1;PMS_P2;Temp;Humidity;BMP_temperature;BMP_pressure;BME280_temperature;BME280_humidity;BME280_pressure;Samples;Min_cycle;Max_cycle;Signal;HPM_P1;HPM_P2
2022/09/28 00:01:16;;;;;;;7.35;3.53;;;;;;;9.89;68.92;98851.84;4895780;29;20071;-79
2022/09/28 00:03:42;;;;;;;4.95;3.60;;;;;;;9.80;68.76;98847.69;4897722;29;20048;-79
2022/09/28 00:06:12;;;;;;;4.00;3.25;;;;;;;9.88;69.20;98843.16;4911126;29;20704;-79
2022/09/28 00:08:38;;;;;;;4.60;3.30;;;;;;;9.84;68.98;98835.47;4909067;29;20512;-81
2022/09/28 00:11:11;;;;;;;4.28;3.33;;;;;;;9.91;69.18;98843.13;4899512;29;20158;-79
2022/09/28 00:13:37;;;;;;;5.07;3.58;;;;;;;9.99;69.67;98844.69;4895557;29;20063;-79
2022/09/28 00:16:09;;;;;;;5.05;3.70;;;;;;;9.94;68.89;98837.84;4875858;29;20092;-80
2022/09/28 00:18:36;;;;;;;4.25;3.22;;;;;;;9.82;69.66;98816.47;4909526;29;20127;-79
2022/09/28 00:21:05;;;;;;;4.25;3.28;;;;;;;9.88;69.56;98813.75;4894112;29;20543;-78
2022/09/28 00:23:31;;;;;;;4.22;3.13;;;;;;;9.83;68.18;98820.78;4875008;29;20154;-81
2022/09/28 00:26:04;;;;;;;5.55;3.53;;;;;;;9.89;69.21;98824.09;4892206;29;20044;-81
2022/09/28 00:28:31;;;;;;;5.03;3.40;;;;;;;9.88;69.62;98832.78;4891788;29;20096;-78
2022/09/28 00:30:58;;;;;;;4.07;3.22;;;;;;;9.84;69.22;98806.91;4876864;29;20560;-80
2022/09/28 00:33:24;;;;;;;4.35;3.30;;;;;;;9.76;69.03;98802.72;4877401;29;20131;-81
2022/09/28 00:35:55;;;;;;;3.72;3.13;;;;;;;9.77;69.45;98782.81;4889887;29;20040;-79
2022/09/28 00:38:21;;;;;;;4.72;2.90;;;;;;;9.90;69.56;98810.22;4907832;29;21611;-80
2022/09/28 00:40:47;;;;;;;6.03;2.92;;;;;;;9.90;69.44;98805.00;4861843;29;20048;-79
2022/09/28 00:43:21;;;;;;;5.22;2.70;;;;;;;9.75;69.69;98784.56;4894357;29;20153;-79
2022/09/28 00:46:01;;;;;;;4.10;2.90;;;;;;;9.92;69.50;98805.00;4891046;29;20075;-80
2022/09/28 00:48:33;;;;;;;3.33;3.03;;;;;;;9.94;69.93;98800.59;4884407;29;20044;-81
2022/09/28 00:51:02;;;;;;;3.35;2.75;;;;;;;10.00;69.64;98799.63;4891750;29;20142;-79
2022/09/28 00:53:33;;;;;;;4.00;3.08;;;;;;;9.93;68.74;98789.38;4900207;29;20048;-78
2022/09/28 00:56:13;;;;;;;4.05;2.88;;;;;;;9.84;69.92;98778.31;4872987;29;20069;-79
2022/09/28 00:58:46;;;;;;;4.43;2.70;;;;;;;9.80;69.99;98760.19;4908460;29;20079;-79
2022/09/28 01:01:12;;;;;;;4.22;2.78;;;;;;;9.98;69.88;98788.41;4889451;29;20046;-80
2022/09/28 01:03:47;;;;;;;4.85;2.55;;;;;;;9.98;70.02;98783.22;4888586;29;20516;-81
2022/09/28 01:06:20;;;;;;;3.20;2.50;;;;;;;9.95;70.11;98772.00;4908277;29;20604;-81
2022/09/28 01:08:50;;;;;;;3.05;2.30;;;;;;;10.00;69.65;98771.03;4892414;29;20051;-80
2022/09/28 01:11:18;;;;;;;2.42;2.15;;;;;;;9.98;69.89;98775.41;4889541;29;20390;-81
2022/09/28 01:13:47;;;;;;;3.17;2.47;;;;;;;9.95;70.16;98764.19;4892421;29;20044;-78
2022/09/28 01:16:45;;;;;;;3.58;2.58;;;;;;;9.87;69.84;98771.31;4874923;29;20032;-78
2022/09/28 01:19:47;;;;;;;3.70;3.17;;;;;;;9.91;69.96;98765.16;4902708;29;20049;-79
2022/09/28 01:22:14;;;;;;;3.17;2.47;;;;;;;9.89;70.11;98759.13;4887982;29;21166;-79
2022/09/28 01:24:45;;;;;;;2.85;2.03;;;;;;;9.81;69.91;98761.06;4891562;29;20092;-81
2022/09/28 01:27:35;;;;;;;3.25;2.55;;;;;;;9.77;70.00;98754.22;4876281;29;20048;-81
2022/09/28 01:30:12;;;;;;;3.13;2.30;;;;;;;9.65;69.96;98740.59;4890755;29;20075;-80
2022/09/28 01:33:06;;;;;;;2.85;2.17;;;;;;;9.80;70.62;98741.16;4892237;29;20051;-81
2022/09/28 01:35:42;;;;;;;2.70;2.13;;;;;;;9.53;70.55;98696.75;4861843;29;20051;-81
2022/09/28 01:38:11;;;;;;;2.63;2.30;;;;;;;9.80;70.51;98735.97;4906186;29;20130;-80
2022/09/28 01:40:38;;;;;;;2.53;2.33;;;;;;;9.56;70.42;98685.41;4891324;29;20544;-80
2022/09/28 01:43:14;;;;;;;3.83;2.25;;;;;;;9.54;70.48;98698.44;4876263;29;20044;-81
2022/09/28 01:45:47;;;;;;;2.42;2.17;;;;;;;9.79;70.41;98732.50;4887127;29;20056;-79
2022/09/28 01:48:32;;;;;;;2.60;2.00;;;;;;;9.80;70.51;98725.59;4860381;29;20041;-81
2022/09/28 01:51:02;;;;;;;3.63;2.33;;;;;;;9.42;70.46;98662.34;4888740;29;20055;-82
2022/09/28 01:53:39;;;;;;;3.15;2.08;;;;;;;9.64;70.30;98689.53;4890425;29;20282;-80
2022/09/28 01:56:21;;;;;;;2.63;2.10;;;;;;;9.71;70.49;98707.59;4889041;29;20476;-83
2022/09/28 01:58:57;;;;;;;2.35;1.90;;;;;;;9.79;70.95;98705.69;4862222;29;20040;-81
2022/09/28 02:01:52;;;;;;;2.75;2.20;;;;;;;9.80;70.18;98710.00;4857417;29;20553;-80
2022/09/28 02:04:43;;;;;;;1.70;1.60;;;;;;;9.80;70.74;98716.03;4876993;29;20051;-83
2022/09/28 02:07:16;;;;;;;2.58;1.73;;;;;;;9.39;70.40;98650.28;4857018;29;20370;-80
2022/09/28 02:09:50;;;;;;;2.67;2.00;;;;;;;9.53;70.51;98656.91;4871483;29;20044;-82
2022/09/28 02:12:25;;;;;;;2.40;1.80;;;;;;;9.76;70.60;98692.75;4874627;29;20040;-80
2022/09/28 02:14:58;;;;;;;1.92;1.70;;;;;;;9.71;70.57;98671.22;4872368;29;20117;-82
2022/09/28 02:17:24;;;;;;;2.60;1.90;;;;;;;9.67;70.81;98677.38;4890963;29;20040;-80
2022/09/28 02:19:50;;;;;;;2.72;1.92;;;;;;;9.76;71.08;98687.56;4898802;29;20091;-81
2022/09/28 02:22:26;;;;;;;2.53;1.95;;;;;;;9.53;70.61;98637.00;4892683;29;20051;-82
2022/09/28 02:24:58;;;;;;;2.80;2.10;;;;;;;9.71;70.47;98668.63;4891284;29;20053;-82
2022/09/28 02:27:50;;;;;;;3.15;2.10;;;;;;;9.68;70.52;98664.38;4886002;29;20052;-80
2022/09/28 02:30:17;;;;;;;3.92;2.13;;;;;;;9.72;70.80;98663.38;4868183;29;20487;-79
2022/09/28 02:32:49;;;;;;;3.58;2.85;;;;;;;9.55;70.04;98643.03;4902043;29;20048;-80
2022/09/28 02:35:17;;;;;;;3.30;2.80;;;;;;;9.60;70.67;98666.28;4887730;29;20123;-82
2022/09/28 02:37:44;;;;;;;4.03;3.00;;;;;;;9.24;70.96;98594.38;4891703;29;20152;-83
2022/09/28 02:40:24;;;;;;;4.30;2.95;;;;;;;9.72;70.89;98657.34;4906257;29;20508;-83
2022/09/28 02:43:29;;;;;;;3.25;2.83;;;;;;;9.59;70.92;98626.47;4888729;29;20131;-81
2022/09/28 02:46:19;;;;;;;4.18;3.30;;;;;;;9.76;70.59;98646.00;4892859;29;20045;-82
2022/09/28 02:49:10;;;;;;;3.28;2.85;;;;;;;9.74;70.78;98642.59;4873116;29;20036;-80
2022/09/28 02:51:59;;;;;;;3.63;2.88;;;;;;;9.78;71.24;98633.84;4900103;29;20067;-81
2022/09/28 02:54:31;;;;;;;3.97;3.10;;;;;;;9.54;70.94;98586.78;4876496;29;21131;-80
2022/09/28 02:57:12;;;;;;;2.83;2.25;;;;;;;9.77;70.85;98627.75;4875922;29;20082;-82
2022/09/28 03:00:00;;;;;;;2.67;2.20;;;;;;;9.69;70.84;98629.72;4884812;29;20627;-81
2022/09/28 03:02:49;;;;;;;3.13;2.30;;;;;;;9.67;71.10;98631.50;4892508;29;20059;-79
2022/09/28 03:05:21;;;;;;;2.70;2.30;;;;;;;9.71;70.97;98629.66;4918552;29;20057;-80
2022/09/28 03:08:08;;;;;;;;;;;;;;;9.69;70.54;98634.91;4893292;29;20144;-83
2022/09/28 03:10:46;;;;;;;2.80;2.50;;;;;;;9.31;70.57;98570.00;4896529;29;19975;-82
2022/09/28 03:13:15;;;;;;;4.57;2.60;;;;;;;9.68;71.11;98628.00;4914369;29;20378;-81
2022/09/28 03:15:43;;;;;;;3.08;2.35;;;;;;;9.58;71.03;98601.41;4890789;29;20097;-81
2022/09/28 03:18:10;;;;;;;2.70;2.47;;;;;;;9.54;70.70;98594.56;4867007;29;20041;-82
2022/09/28 03:20:36;;;;;;;3.10;2.33;;;;;;;9.56;71.13;98591.91;4898274;29;20580;-80
2022/09/28 03:23:03;;;;;;;2.70;2.30;;;;;;;9.75;71.12;98620.91;4892518;29;20048;-81
2022/09/28 03:25:29;;;;;;;4.15;2.40;;;;;;;9.74;70.63;98607.06;4907286;29;20053;-82
2022/09/28 03:27:55;;;;;;;2.90;2.05;;;;;;;9.75;70.67;98605.31;4873518;29;20558;-82
2022/09/28 03:30:22;;;;;;;2.83;2.40;;;;;;;9.56;70.76;98576.34;4887128;29;20057;-82
2022/09/28 03:32:59;;;;;;;3.33;2.20;;;;;;;9.60;70.88;98586.59;4872403;29;20045;-81
2022/09/28 03:35:28;;;;;;;2.47;2.28;;;;;;;9.82;70.30;98614.66;4858688;29;20045;-81
2022/09/28 03:37:55;;;;;;;2.72;2.25;;;;;;;9.77;70.74;98613.94;4883011;29;20382;-82
2022/09/28 03:40:22;;;;;;;3.47;2.30;;;;;;;9.79;70.78;98609.56;4906235;29;20052;-83
2022/09/28 03:42:48;;;;;;;3.28;2.78;;;;;;;9.51;70.02;98560.88;4892610;29;20123;-81
2022/09/28 03:45:15;;;;;;;2.67;2.40;;;;;;;9.68;70.63;98593.38;4880652;29;20207;-79
2022/09/28 03:47:45;;;;;;;2.63;2.42;;;;;;;9.82;70.72;98601.66;4894088;29;20047;-81
2022/09/28 03:50:11;;;;;;;2.60;2.40;;;;;;;9.60;70.57;98558.03;4877263;29;20044;-81
2022/09/28 03:52:37;;;;;;;2.47;2.20;;;;;;;9.59;70.64;98561.56;4894261;29;20127;-83
2022/09/28 03:55:04;;;;;;;2.63;2.42;;;;;;;9.63;70.61;98539.78;4882089;29;20049;-80
2022/09/28 03:57:33;;;;;;;3.53;2.83;;;;;;;9.76;70.24;98563.72;4895556;29;20062;-82
2022/09/28 03:59:59;;;;;;;2.88;2.30;;;;;;;10.00;70.47;98586.53;4900547;29;20178;-79
2022/09/28 04:02:26;;;;;;;4.22;2.63;;;;;;;10.02;70.16;98584.75;4891713;29;20053;-80
2022/09/28 04:04:52;;;;;;;3.30;3.00;;;;;;;9.72;69.41;98553.44;4881863;29;20115;-81
2022/09/28 04:07:19;;;;;;;3.05;2.75;;;;;;;9.82;70.27;98564.44;4894514;29;20115;-80
2022/09/28 04:09:45;;;;;;;3.00;2.70;;;;;;;9.83;70.56;98556.59;4895851;29;20183;-82
2022/09/28 04:12:11;;;;;;;4.22;2.88;;;;;;;9.68;70.06;98525.84;4897354;29;20051;-84
2022/09/28 04:14:37;;;;;;;3.63;2.85;;;;;;;10.01;70.22;98583.88;4890801;29;20040;-83
2022/09/28 04:17:04;;;;;;;3.42;3.13;;;;;;;9.88;69.88;98561.69;4899411;29;20044;-84
2022/09/28 04:19:31;;;;;;;3.25;2.90;;;;;;;9.87;70.72;98554.81;4893647;29;20053;-82
2022/09/28 04:22:20;;;;;;;5.28;3.10;;;;;;;9.84;70.00;98531.50;4915526;29;20048;-84
2022/09/28 04:24:46;;;;;;;3.45;2.92;;;;;;;9.59;70.12;98493.16;4903918;29;20044;-85
2022/09/28 04:30:06;;;;;;;3.20;2.80;;;;;;;9.72;70.32;98514.47;4903928;29;20108;-82
2022/09/28 04:32:42;;;;;;;4.72;3.00;;;;;;;10.08;69.69;98575.03;4887590;29;20041;-83
2022/09/28 04:35:18;;;;;;;3.03;2.72;;;;;;;9.82;69.86;98525.47;4904411;29;20040;-81
2022/09/28 04:38:00;;;;;;;2.88;2.53;;;;;;;9.52;69.79;98456.13;4904345;29;20505;-82
2022/09/28 04:40:26;;;;;;;3.65;2.90;;;;;;;9.92;70.14;98526.97;4903198;29;20112;-81
2022/09/28 04:42:56;;;;;;;4.57;2.55;;;;;;;10.15;70.14;98554.06;4920642;29;20044;-84
2022/09/28 04:45:26;;;;;;;2.83;2.53;;;;;;;9.76;69.85;98501.34;4917655;29;20048;-87
2022/09/28 04:47:57;;;;;;;3.35;2.65;;;;;;;9.95;69.85;98509.53;4900516;29;20044;-84
2022/09/28 04:50:53;;;;;;;3.13;2.50;;;;;;;9.82;69.81;98492.53;4905640;29;20025;-84
2022/09/28 04:53:22;;;;;;;3.40;2.53;;;;;;;10.15;69.97;98541.91;4917737;29;20389;-81
2022/09/28 04:56:16;;;;;;;3.22;2.65;;;;;;;9.94;69.44;98514.75;4906534;29;20126;-84
2022/09/28 04:58:42;;;;;;;3.17;2.30;;;;;;;10.17;70.20;98534.94;4902837;29;20081;-81
2022/09/28 05:01:14;;;;;;;3.60;2.50;;;;;;;10.31;69.70;98537.16;4898037;29;20068;-82
2022/09/28 05:04:01;;;;;;;;;;;;;;;10.47;69.78;98544.53;4896589;29;20346;-82
2022/09/28 05:06:49;;;;;;;2.97;2.10;;;;;;;10.25;69.51;98503.53;4896215;29;20314;-82
2022/09/28 05:09:20;;;;;;;3.00;2.30;;;;;;;10.27;69.89;98488.72;4892759;29;20108;-82
2022/09/28 05:11:52;;;;;;;4.70;2.90;;;;;;;10.60;69.49;98534.66;4879513;29;20568;-82
2022/09/28 05:14:23;;;;;;;5.03;2.42;;;;;;;10.24;69.58;98484.47;4883146;29;21576;-82
2022/09/28 05:16:51;;;;;;;5.13;2.15;;;;;;;10.25;69.50;98482.72;4895343;29;20053;-82
2022/09/28 05:19:26;;;;;;;3.40;2.05;;;;;;;10.53;69.75;98528.78;4896318;29;20044;-82
2022/09/28 05:22:02;;;;;;;3.15;2.00;;;;;;;10.55;68.95;98517.41;4895641;29;20048;-82
2022/09/28 05:24:30;;;;;;;2.65;2.00;;;;;;;10.67;69.18;98530.97;4902689;29;20040;-84
2022/09/28 05:26:58;;;;;;;2.47;2.10;;;;;;;10.48;69.20;98487.28;4858752;29;20541;-83
2022/09/28 05:29:23;;;;;;;4.93;2.13;;;;;;;10.68;68.94;98532.69;4874918;29;20143;-81
2022/09/28 05:31:50;;;;;;;2.92;1.92;;;;;;;10.51;69.04;98487.19;4888753;29;20040;-83
2022/09/28 05:34:15;;;;;;;4.55;1.75;;;;;;;10.50;69.01;98482.88;4892358;29;20074;-83
2022/09/28 05:36:44;;;;;;;3.17;2.00;;;;;;;10.53;68.82;98472.41;4878237;29;20048;-85
2022/09/28 05:39:11;;;;;;;2.97;2.20;;;;;;;10.78;69.14;98502.88;4892416;29;20052;-85
2022/09/28 05:41:37;;;;;;;2.67;1.92;;;;;;;10.70;69.17;98478.84;4890836;29;20044;-83
2022/09/28 05:44:04;;;;;;;4.43;3.10;;;;;;;10.54;69.03;98455.88;4876910;29;20139;-83
2022/09/28 05:46:30;;;;;;;4.43;2.80;;;;;;;10.87;68.59;98500.91;4883297;29;20057;-84
2022/09/28 05:48:59;;;;;;;3.60;2.25;;;;;;;10.67;68.81;98453.78;4904242;29;20069;-82
2022/09/28 05:51:25;;;;;;;3.35;2.53;;;;;;;10.72;68.73;98451.03;4871533;29;20052;-82
2022/09/28 05:53:56;;;;;;;4.75;2.67;;;;;;;10.71;68.36;98451.91;4888629;29;20059;-83
2022/09/28 05:56:24;;;;;;;3.33;2.50;;;;;;;10.91;68.74;98481.69;4874044;29;20051;-82
2022/09/28 05:58:51;;;;;;;5.38;3.85;;;;;;;10.81;68.76;98436.91;4897568;29;20047;-82
2022/09/28 06:01:20;;;;;;;5.20;3.95;;;;;;;10.94;68.58;98460.75;4870689;29;20052;-83
2022/09/28 06:03:49;;;;;;;4.68;2.97;;;;;;;11.19;68.82;98475.59;4890629;29;20071;-83
2022/09/28 06:06:18;;;;;;;3.63;2.83;;;;;;;11.33;68.69;98490.75;4875614;29;20156;-83
2022/09/28 06:08:47;;;;;;;4.35;2.90;;;;;;;11.21;68.32;98469.44;4872043;29;20048;-81
2022/09/28 06:11:26;;;;;;;3.13;2.67;;;;;;;11.30;68.23;98479.53;4897603;29;20044;-81
2022/09/28 06:13:54;;;;;;;3.38;2.55;;;;;;;11.45;68.10;98488.59;4873856;29;20046;-79
2022/09/28 06:16:20;;;;;;;4.65;3.05;;;;;;;11.44;67.68;98496.50;4862895;29;20342;-77
2022/09/28 06:18:47;;;;;;;3.25;2.85;;;;;;;11.40;67.94;98492.28;4871979;29;20048;-78
2022/09/28 06:21:21;;;;;;;2.60;2.40;;;;;;;11.49;67.74;98498.94;4874683;29;20148;-77
2022/09/28 06:23:47;;;;;;;5.07;2.70;;;;;;;11.55;68.15;98501.34;4875444;29;20140;-79
2022/09/28 06:26:13;;;;;;;4.50;2.67;;;;;;;11.56;67.45;98508.25;4888764;29;20052;-79
2022/09/28 06:28:39;;;;;;;3.20;2.63;;;;;;;11.63;67.75;98501.91;4871776;29;20138;-78
2022/09/28 06:31:05;;;;;;;3.47;2.80;;;;;;;11.65;67.73;98494.06;4887516;29;20457;-77
2022/09/28 06:33:40;;;;;;;4.22;2.65;;;;;;;11.67;67.39;98497.47;4871988;29;20048;-78
2022/09/28 06:36:09;;;;;;;3.15;2.70;;;;;;;11.57;67.44;98483.91;4888038;29;20100;-78
2022/09/28 06:38:35;;;;;;;3.17;2.35;;;;;;;11.69;67.62;98501.72;4889551;29;20047;-79
2022/09/28 06:41:02;;;;;;;3.33;2.80;;;;;;;11.73;67.31;98497.25;4911678;29;20280;-77
2022/09/28 06:43:29;;;;;;;5.15;3.00;;;;;;;11.76;67.28;98499.75;4896482;29;20119;-77
2022/09/28 06:46:14;;;;;;;3.97;3.00;;;;;;;11.82;66.91;98496.06;4911360;29;20049;-80
2022/09/28 06:48:51;;;;;;;3.35;2.97;;;;;;;11.87;66.63;98504.59;4918110;29;20062;-80
2022/09/28 06:51:37;;;;;;;3.88;2.80;;;;;;;11.84;67.07;98489.91;4896152;29;20139;-77
2022/09/28 06:54:24;;;;;;;4.00;3.13;;;;;;;11.87;66.96;98495.03;4890586;29;20049;-78
2022/09/28 06:57:01;;;;;;;3.83;3.15;;;;;;;11.97;66.97;98494.69;4887033;29;20504;-78
2022/09/28 06:59:28;;;;;;;5.47;3.75;;;;;;;12.05;66.62;98505.72;4890039;29;20067;-77
2022/09/28 07:01:56;;;;;;;7.43;3.65;;;;;;;12.04;66.45;98491.84;4874908;29;20048;-78
2022/09/28 07:04:41;;;;;;;7.40;4.28;;;;;;;12.05;66.62;98487.47;4893232;29;20045;-78
2022/09/28 07:07:34;;;;;;;4.72;4.05;;;;;;;12.12;66.83;98478.53;4888690;29;20060;-78
2022/09/28 07:10:10;;;;;;;5.90;4.18;;;;;;;12.20;66.43;98484.31;4890146;29;20056;-77
2022/09/28 07:12:42;;;;;;;7.05;4.47;;;;;;;12.14;66.12;98470.66;4894772;29;20096;-76
2022/09/28 07:15:32;;;;;;;8.70;4.72;;;;;;;12.16;66.01;98474.91;4892859;29;20520;-78
2022/09/28 07:18:00;;;;;;;7.68;5.55;;;;;;;12.16;66.30;98458.41;4857926;29;20560;-77
2022/09/28 07:20:28;;;;;;;5.97;4.75;;;;;;;12.14;65.58;98465.44;4879641;29;20057;-78
2022/09/28 07:22:55;;;;;;;6.70;4.85;;;;;;;12.27;66.21;98476.28;4876847;29;20033;-79
2022/09/28 07:25:24;;;;;;;6.60;5.10;;;;;;;12.33;66.10;98484.72;4872770;29;20520;-79
2022/09/28 07:28:09;;;;;;;11.23;5.20;;;;;;;12.39;65.93;98486.22;4878914;29;20040;-78
2022/09/28 07:30:49;;;;;;;7.88;5.72;;;;;;;12.37;65.60;98482.00;4890228;29;20053;-77
2022/09/28 07:33:36;;;;;;;7.30;5.72;;;;;;;12.39;65.37;98488.00;4873799;29;20058;-77
2022/09/28 07:36:21;;;;;;;9.93;6.00;;;;;;;12.35;65.75;98485.50;4889529;29;20104;-76
2022/09/28 07:38:49;;;;;;;7.75;6.00;;;;;;;12.40;65.78;98489.72;4892609;29;20083;-78
2022/09/28 07:41:21;;;;;;;7.78;6.22;;;;;;;12.40;65.44;98485.31;4890952;29;20135;-77
2022/09/28 07:43:49;;;;;;;10.77;6.85;;;;;;;12.35;65.80;98477.69;4877725;29;20056;-78
2022/09/28 07:46:20;;;;;;;10.18;7.25;;;;;;;12.35;65.66;98480.28;4876441;29;20076;-80
2022/09/28 07:48:55;;;;;;;10.25;6.72;;;;;;;12.52;65.78;98475.34;4866253;29;20131;-78
2022/09/28 07:51:43;;;;;;;11.38;8.02;;;;;;;12.48;65.49;98467.63;4885897;29;20056;-77
2022/09/28 07:54:20;;;;;;;24.77;14.70;;;;;;;12.65;65.48;98481.78;4897158;29;20052;-78
2022/09/28 07:57:12;;;;;;;;;;;;;;;12.67;65.06;98473.94;4886994;29;20151;-76
2022/09/28 08:00:13;;;;;;;9.07;6.50;;;;;;;12.53;65.20;98461.41;4897685;29;19919;-80
2022/09/28 08:02:39;;;;;;;8.52;6.20;;;;;;;12.65;65.23;98469.63;4896652;29;20037;-78
2022/09/28 08:05:08;;;;;;;8.65;6.03;;;;;;;12.68;64.85;98470.41;4898179;29;20096;-77
2022/09/28 08:07:37;;;;;;;7.97;5.78;;;;;;;12.68;65.18;98455.59;4888247;29;20057;-77
2022/09/28 08:10:06;;;;;;;6.40;5.70;;;;;;;12.82;64.98;98470.72;4898669;29;20136;-78
2022/09/28 08:13:02;;;;;;;8.40;6.20;;;;;;;12.88;64.93;98467.88;4892666;29;20116;-78
2022/09/28 08:16:01;;;;;;;7.93;5.85;;;;;;;13.01;64.82;98480.41;4899830;29;20084;-78
2022/09/28 08:18:50;;;;;;;8.07;6.20;;;;;;;13.05;64.87;98466.34;4880128;29;20072;-78
2022/09/28 08:24:00;;;;;;;7.30;5.55;;;;;;;13.12;64.74;98457.34;4898244;29;20048;-77
2022/09/28 08:26:28;;;;;;;8.57;5.57;;;;;;;13.28;64.39;98454.09;4894608;29;20181;-78
2022/09/28 08:28:54;;;;;;;9.85;5.38;;;;;;;13.44;64.22;98460.41;4863350;29;20055;-79
2022/09/28 08:31:40;;;;;;;5.57;4.63;;;;;;;13.46;63.60;98453.34;4877918;29;20472;-79
2022/09/28 08:34:32;;;;;;;7.05;4.82;;;;;;;13.48;63.77;98461.13;4897857;29;20053;-78
2022/09/28 08:37:19;;;;;;;7.65;5.00;;;;;;;13.34;63.83;98454.69;4887246;29;20128;-77
2022/09/28 08:40:05;;;;;;;6.85;4.57;;;;;;;13.40;63.92;98453.56;4886933;29;20107;-76
2022/09/28 08:43:00;;;;;;;6.53;5.07;;;;;;;13.52;63.32;98462.69;4884862;29;20052;-77
2022/09/28 08:45:46;;;;;;;6.55;4.75;;;;;;;13.62;63.61;98461.41;4891237;29;20048;-77
2022/09/28 08:49:28;;;;;;;5.93;5.32;;;;;;;13.64;63.16;98462.19;4894482;29;20090;-77
2022/09/28 08:52:22;;;;;;;;;;;;;;;13.59;63.32;98461.53;4893204;29;20044;-78
2022/09/28 08:55:22;;;;;;;5.90;4.90;;;;;;;13.48;62.91;98451.53;4874377;29;19969;-77
2022/09/28 08:58:01;;;;;;;6.55;5.47;;;;;;;13.45;62.92;98454.28;4890714;29;20575;-78
2022/09/28 09:00:38;;;;;;;8.05;5.88;;;;;;;13.43;63.10;98463.09;4853807;29;20052;-77
2022/09/28 09:03:11;;;;;;;7.63;6.07;;;;;;;13.43;63.06;98463.09;4876295;29;20041;-78
2022/09/28 09:06:03;;;;;;;8.52;6.40;;;;;;;13.44;63.01;98462.19;4877107;29;20418;-77
2022/09/28 09:09:09;;;;;;;9.43;7.03;;;;;;;13.47;63.14;98460.28;4892431;29;20048;-76
2022/09/28 09:12:13;;;;;;;7.30;6.50;;;;;;;13.51;63.05;98461.88;4897579;29;20099;-78
2022/09/28 09:14:58;;;;;;;9.07;6.32;;;;;;;13.52;62.80;98460.94;4886310;29;20049;-79
2022/09/28 09:17:54;;;;;;;7.57;5.60;;;;;;;13.55;62.98;98468.66;4889138;29;20077;-79
2022/09/28 09:20:53;;;;;;;7.10;4.88;;;;;;;13.48;62.62;98467.22;4863707;29;20059;-78
2022/09/28 09:23:45;;;;;;;7.13;5.15;;;;;;;13.49;63.03;98463.69;4889129;29;20116;-78
2022/09/28 09:26:19;;;;;;;7.45;5.97;;;;;;;13.59;62.84;98472.00;4887857;29;20052;-77
2022/09/28 09:28:55;;;;;;;9.52;5.72;;;;;;;13.58;62.48;98482.47;4905197;29;20052;-78
2022/09/28 09:31:29;;;;;;;9.90;6.65;;;;;;;13.53;62.32;98480.94;4869099;29;20135;-76
2022/09/28 09:34:28;;;;;;;7.93;5.40;;;;;;;13.43;62.41;98479.59;4871669;29;20181;-77
2022/09/28 09:37:42;;;;;;;7.80;5.93;;;;;;;13.38;62.41;98478.91;4894921;29;20056;-77
2022/09/28 09:41:18;;;;;;;7.50;5.35;;;;;;;13.43;62.83;98477.00;4888719;29;20045;-77
2022/09/28 09:44:35;;;;;;;7.07;4.78;;;;;;;13.47;62.74;98480.31;4868898;29;20059;-78
2022/09/28 09:47:30;;;;;;;7.82;4.93;;;;;;;13.43;62.48;98478.78;4889801;29;20135;-76
2022/09/28 09:50:32;;;;;;;8.38;4.97;;;;;;;13.44;62.34;98483.09;4884390;29;20201;-76
2022/09/28 09:53:04;;;;;;;7.32;5.18;;;;;;;13.36;62.34;98480.75;4886366;29;20054;-78
2022/09/28 09:55:43;;;;;;;7.10;5.15;;;;;;;13.34;62.60;98472.97;4870395;29;20055;-77
2022/09/28 09:58:40;;;;;;;7.82;5.20;;;;;;;13.40;62.72;98471.88;4890088;29;20051;-77
2022/09/28 10:01:28;;;;;;;7.63;5.25;;;;;;;13.30;62.60;98457.50;4860788;29;20504;-79
2022/09/28 10:04:24;;;;;;;7.65;5.15;;;;;;;13.45;62.60;98484.78;4897713;29;20041;-77
2022/09/28 10:07:00;;;;;;;7.22;5.32;;;;;;;13.49;62.71;98475.88;4892433;29;20060;-78
2022/09/28 10:09:35;;;;;;;7.30;5.45;;;;;;;13.50;62.71;98465.38;4863760;29;20071;-78
2022/09/28 10:12:20;;;;;;;6.22;4.93;;;;;;;13.52;62.43;98458.34;4893744;29;20048;-79
2022/09/28 10:14:46;;;;;;;8.18;5.15;;;;;;;13.53;62.22;98460.03;4879069;29;20071;-79
2022/09/28 10:17:18;;;;;;;8.13;5.10;;;;;;;13.61;62.31;98462.31;4879423;29;20052;-78
2022/09/28 10:20:06;;;;;;;8.82;6.53;;;;;;;13.62;62.40;98468.38;4897383;29;20044;-78
2022/09/28 10:22:46;;;;;;;8.93;6.35;;;;;;;13.64;62.20;98467.41;4884384;29;20036;-79
2022/09/28 10:25:18;;;;;;;8.93;6.85;;;;;;;13.61;62.12;98469.28;4898038;29;20171;-78
2022/09/28 10:27:51;;;;;;;8.07;6.63;;;;;;;13.60;62.31;98478.03;4909993;29;20047;-79
2022/09/28 10:30:23;;;;;;;7.07;6.35;;;;;;;13.63;62.12;98476.19;4880341;29;20052;-77
2022/09/28 10:32:52;;;;;;;11.60;6.78;;;;;;;13.72;62.44;98472.31;4906441;29;20143;-81
2022/09/28 10:35:18;;;;;;;11.02;6.65;;;;;;;13.78;62.06;98477.28;4889923;29;20055;-83
2022/09/28 10:37:56;;;;;;;11.35;6.78;;;;;;;13.71;61.65;98468.00;4891258;29;20075;-82
2022/09/28 10:40:48;;;;;;;11.38;7.38;;;;;;;13.66;61.66;98478.66;4887485;29;20084;-79
2022/09/28 10:43:38;;;;;;;13.00;7.85;;;;;;;13.59;61.81;98478.97;4875514;29;20036;-80
2022/09/28 10:46:16;;;;;;;13.48;8.50;;;;;;;13.49;61.91;98475.88;4893282;29;20053;-78
2022/09/28 10:48:49;;;;;;;10.93;8.18;;;;;;;13.44;62.05;98476.09;4864756;29;20101;-77
2022/09/28 10:51:16;;;;;;;11.20;8.30;;;;;;;13.37;61.82;98465.00;4894673;29;20146;-78
2022/09/28 10:54:00;;;;;;;13.55;8.52;;;;;;;13.35;62.08;98451.16;4894206;29;20048;-81
2022/09/28 10:56:41;;;;;;;9.73;7.90;;;;;;;13.37;61.98;98444.13;4902339;29;20520;-80
2022/09/28 10:59:27;;;;;;;12.48;7.22;;;;;;;13.58;62.20;98462.44;4897426;29;20046;-79
2022/09/28 11:02:11;;;;;;;10.82;8.23;;;;;;;13.62;62.13;98465.75;4893117;29;20056;-79
2022/09/28 11:04:40;;;;;;;14.77;8.45;;;;;;;13.61;61.90;98461.44;4898536;29;20067;-81
2022/09/28 11:07:23;;;;;;;10.70;7.95;;;;;;;13.56;61.84;98456.44;4870273;29;20099;-80
2022/09/28 11:09:50;;;;;;;11.55;8.85;;;;;;;13.62;61.87;98452.69;4895391;29;20048;-79
2022/09/28 11:12:22;;;;;;;11.15;8.57;;;;;;;13.73;61.51;98463.56;4894306;29;20044;-79
2022/09/28 11:14:53;;;;;;;;;;;;;;;13.86;62.01;98475.16;4895761;29;20051;-80
2022/09/28 11:17:32;;;;;;;10.98;8.40;;;;;;;13.84;61.71;98470.94;4889447;29;19924;-77
2022/09/28 11:20:23;;;;;;;12.32;9.13;;;;;;;13.79;61.58;98462.44;4879393;29;20573;-80
2022/09/28 11:22:56;;;;;;;12.98;8.70;;;;;;;13.89;61.29;98482.06;4876290;29;20053;-79
2022/09/28 11:25:30;;;;;;;11.27;8.80;;;;;;;13.87;61.45;98478.66;4894555;29;20055;-80
2022/09/28 11:27:59;;;;;;;11.45;8.73;;;;;;;13.89;61.17;98482.06;4875937;29;20085;-79
2022/09/28 11:30:47;;;;;;;11.40;8.48;;;;;;;13.95;61.27;98492.22;4865154;29;20112;-80
2022/09/28 11:33:44;;;;;;;12.45;9.30;;;;;;;13.80;61.02;98483.28;4875576;29;20560;-81
2022/09/28 11:36:37;;;;;;;14.27;7.97;;;;;;;13.79;61.23;98480.72;4891129;29;20096;-83
2022/09/28 11:39:16;;;;;;;10.23;6.75;;;;;;;13.74;61.27;98478.31;4861629;29;20049;-82
2022/09/28 11:42:03;;;;;;;11.48;6.90;;;;;;;13.72;61.25;98485.38;4875444;29;20040;-80
2022/09/28 11:44:45;;;;;;;9.38;6.45;;;;;;;13.63;61.65;98483.16;4880465;29;20061;-79
2022/09/28 11:47:37;;;;;;;10.55;6.55;;;;;;;13.64;61.59;98487.47;4898071;29;20049;-81
2022/09/28 11:50:17;;;;;;;12.80;6.53;;;;;;;13.58;61.35;98493.81;4876968;29;20049;-80
2022/09/28 11:52:54;;;;;;;10.57;6.38;;;;;;;13.53;61.44;98496.63;4889674;29;20040;-82
2022/09/28 11:55:25;;;;;;;9.90;6.40;;;;;;;13.48;61.28;98502.94;4883142;29;20424;-83
2022/09/28 11:58:26;;;;;;;13.20;6.97;;;;;;;13.36;61.49;98499.03;4885610;29;20051;-81
2022/09/28 12:01:22;;;;;;;8.77;7.07;;;;;;;13.26;61.46;98486.34;4886749;29;20060;-81
2022/09/28 12:04:59;;;;;;;8.48;6.50;;;;;;;13.31;62.04;98493.16;4851714;29;20143;-81
2022/09/28 12:07:46;;;;;;;10.02;7.00;;;;;;;13.33;61.66;98509.63;4874910;29;20060;-80
2022/09/28 12:10:59;;;;;;;9.02;7.20;;;;;;;13.21;61.93;98493.53;4900929;29;20408;-82
2022/09/28 12:13:48;;;;;;;13.05;6.70;;;;;;;13.28;62.23;98495.91;4893138;29;20063;-81
2022/09/28 12:16:22;;;;;;;10.05;6.88;;;;;;;13.17;62.12;98484.09;4894743;29;20029;-81
2022/09/28 12:18:53;;;;;;;9.43;6.50;;;;;;;13.24;62.31;98498.63;4902567;29;20472;-80
2022/09/28 12:21:29;;;;;;;11.43;6.65;;;;;;;13.31;62.15;98508.84;4882317;29;20052;-80
2022/09/28 12:24:32;;;;;;;7.97;6.18;;;;;;;13.34;62.20;98511.34;4886390;29;20037;-78
2022/09/28 12:27:11;;;;;;;11.48;6.80;;;;;;;13.30;62.06;98504.53;4897348;29;20045;-79
2022/09/28 12:29:46;;;;;;;11.32;6.90;;;;;;;13.25;62.09;98497.72;4867165;29;20053;-78